Terminal Aerodrome Forecast
Issued by NWS Cleveland, OH

Home | Current Version | Previous Version | Text Only | Print | Product List | Glossary Off
Versions: 1 2 3 4 5 6 7 8 9 10 11 12 13 14 15 16 17 18 19 20 21 22 23 24 25 26 27 28 29 30 31 32 33

361
FTUS41 KCLE 211141 AAA
TAFCLE
TAF AMD
KCLE 211141Z 2112/2218 29012KT 6SM -SHRA BKN006 OVC035
      TEMPO 2112/2114 4SM -SHRA BR BKN010
     FM211400 30014KT 3SM -SHRA BR BKN007 OVC025
     FM211900 35012KT 6SM -SHRA SCT010 OVC020
     FM212200 02010KT P6SM BKN030 OVC200
     FM220800 03010KT 3SM -FZRASNPL OVC020=

USA.gov is the U.S. government's official web portal to all federal, state and local government web resources and services.